Data for 05/25/2007

Time Sea-Level Adjusted Pressure Absolute Pressure Temperature Relative Humidity Dew Point   
(mb) (inHg) (mb) (inHg) (C) (F) (%) (C) (F)
00:05 1016 30 845 24.95 4.7 40.5 91 3.3 38
00:10 1016 30 845 24.95 4.7 40.5 90 3.2 37.8
00:15 1016 30 845 24.95 4.7 40.5 89 3.1 37.6
00:20 1016 30 845 24.95 4.7 40.4 90 3.1 37.6
00:25 1016 30 845 24.95 4.7 40.4 89 3 37.5
00:30 1016 30 845 24.95 4.7 40.4 89 3.1 37.5
00:35 1016 30 845 24.95 4.6 40.3 91 3.2 37.8
00:40 1016 30 845 24.95 4.6 40.2 92 3.3 38
00:45 1016 30 845 24.95 4.5 40.1 92 3.4 38
00:50 1016 30 846 24.98 4.4 40 93 3.4 38.2
00:55 1016 30 846 24.98 4.6 40.3 92 3.5 38.2
01:00 1016 30 846 24.98 4.9 40.9 91 3.6 38.4
01:05 1016 30 845 24.95 5.1 41.2 89 3.5 38.3
01:10 1016 30 845 24.95 5.2 41.4 91 3.9 39
01:15 1016 30 845 24.95 5 40.9 91 3.7 38.6
01:20 1016 30 845 24.95 4.8 40.6 93 3.7 38.7
01:25 1016 30 846 24.98 4.6 40.4 93 3.7 38.6
01:30 1017 30.03 846 24.98 4.6 40.2 93 3.5 38.3
01:35 1017 30.03 846 24.98 4.7 40.4 94 3.7 38.7
01:40 1016 30 846 24.98 4.7 40.5 94 3.7 38.7
01:45 1016 30 845 24.95 4.7 40.4 94 3.8 38.8
01:50 1016 30 845 24.95 4.5 40.2 94 3.7 38.7
01:55 1016 30 846 24.98 4.6 40.2 94 3.7 38.6
02:00 1016 30 845 24.95 4.6 40.2 94 3.6 38.5
02:05 1016 30 845 24.95 4.6 40.3 93 3.5 38.4
02:10 1016 30 845 24.95 4.7 40.5 92 3.5 38.3
02:15 1016 30 845 24.95 4.8 40.6 91 3.5 38.3
02:20 1016 30 845 24.95 4.8 40.6 91 3.5 38.2
02:25 1016 30 845 24.95 4.7 40.5 93 3.6 38.5
02:30 1016 30 845 24.95 4.7 40.5 93 3.7 38.6
02:35 1016 30 845 24.95 4.8 40.6 93 3.8 38.8
02:40 1016 30 845 24.95 5 41 91 3.7 38.7
02:45 1016 30 845 24.95 5.3 41.5 92 4.1 39.4
02:50 1016 30 845 24.95 5.5 41.9 93 4.4 40
02:55 1016 30 846 24.98 5.4 41.7 94 4.5 40
03:00 1017 30.03 846 24.98 5.3 41.5 93 4.3 39.8
03:05 1017 30.03 846 24.98 5.2 41.4 93 4.2 39.6
03:10 1017 30.03 846 24.98 5.1 41.2 94 4.2 39.6
03:15 1017 30.03 846 24.98 5 41 94 4.1 39.3
03:20 1017 30.03 846 24.98 4.8 40.6 94 3.9 38.9
03:25 1017 30.03 846 24.98 4.6 40.3 94 3.7 38.6
03:30 1017 30.03 846 24.98 4.4 40 94 3.5 38.4
03:35 1017 30.03 846 24.98 4.3 39.7 94 3.4 38.1
03:40 1017 30.03 847 25.01 4.2 39.6 94 3.4 38.1
03:45 1017 30.03 847 25.01 4.4 39.8 94 3.5 38.4
03:50 1017 30.03 847 25.01 4.3 39.7 95 3.5 38.2
03:55 1017 30.03 847 25.01 4.2 39.6 95 3.5 38.2
04:00 1017 30.03 847 25.01 4.4 39.8 95 3.6 38.4
04:05 1017 30.03 846 24.98 4.4 40 94 3.6 38.4
04:10 1017 30.03 846 24.98 4.5 40 93 3.5 38.2
04:15 1017 30.03 846 24.98 4.7 40.4 91 3.3 37.9
04:20 1017 30.03 846 24.98 4.8 40.6 89 3.1 37.6
04:25 1017 30.03 846 24.98 4.8 40.7 87 2.8 37
04:30 1017 30.03 846 24.98 4.9 40.8 84 2.5 36.4
04:35 1017 30.03 846 24.98 5 40.9 86 2.8 37
04:40 1017 30.03 846 24.98 5 41 86 2.8 37
04:45 1017 30.03 846 24.98 4.8 40.6 89 3.1 37.6
04:50 1017 30.03 846 24.98 4.7 40.4 90 3.1 37.6
04:55 1017 30.03 846 24.98 4.7 40.5 87 2.7 36.9
05:00 1017 30.03 846 24.98 4.8 40.7 87 2.8 37
05:05 1017 30.03 846 24.98 4.8 40.7 89 3.2 37.7
05:10 1017 30.03 846 24.98 4.8 40.6 89 3 37.5
05:15 1017 30.03 846 24.98 4.7 40.5 89 3 37.4
05:20 1017 30.03 846 24.98 4.7 40.5 90 3.2 37.8
05:25 1017 30.03 846 24.98 4.7 40.4 91 3.4 38.1
05:30 1017 30.03 846 24.98 4.7 40.5 92 3.5 38.3
05:35 1017 30.03 846 24.98 4.6 40.3 93 3.5 38.3
05:40 1017 30.03 846 24.98 4.5 40.1 93 3.5 38.3
05:45 1017 30.03 846 24.98 4.4 39.9 94 3.5 38.3
05:50 1017 30.03 846 24.98 4.3 39.7 94 3.5 38.3
05:55 1017 30.03 846 24.98 4.2 39.5 95 3.4 38.1
06:00 1017 30.03 846 24.98 4 39.3 95 3.3 38
06:05 1017 30.03 846 24.98 4.1 39.5 95 3.4 38.2
06:10 1017 30.03 846 24.98 4.2 39.6 95 3.5 38.4
06:15 1017 30.03 846 24.98 4.2 39.6 95 3.6 38.4
06:20 1017 30.03 847 25.01 4.2 39.6 95 3.5 38.4
06:25 1017 30.03 847 25.01 4.2 39.6 95 3.5 38.3
06:30 1017 30.03 847 25.01 4.2 39.6 95 3.5 38.2
06:35 1018 30.06 847 25.01 4.2 39.5 95 3.4 38.2
06:40 1018 30.06 847 25.01 4.1 39.5 95 3.4 38.2
06:45 1018 30.06 847 25.01 4.1 39.4 95 3.3 38
06:50 1018 30.06 847 25.01 4 39.3 94 3.2 37.8
06:55 1018 30.06 847 25.01 4 39.2 94 3.2 37.7
07:00 1018 30.06 847 25.01 3.9 39 94 3 37.5
07:05 1018 30.06 847 25.01 3.6 38.5 95 2.9 37.2
07:10 1018 30.06 847 25.01 3.4 38.1 94 2.5 36.4
07:15 1018 30.06 847 25.01 3.3 38 93 2.3 36.1
07:20 1018 30.06 847 25.01 3.3 37.9 93 2.3 36.1
07:25 1018 30.06 848 25.04 3.2 37.8 93 2.2 35.9
07:30 1018 30.06 848 25.04 3.1 37.6 91 1.8 35.3
07:35 1019 30.09 848 25.04 3.1 37.5 92 1.8 35.3
07:40 1019 30.09 848 25.04 3 37.4 92 1.8 35.2
07:45 1019 30.09 848 25.04 2.9 37.1 90 1.4 34.6
07:50 1019 30.09 848 25.04 2.5 36.6 91 1.2 34.1
07:55 1019 30.09 848 25.04 1.9 35.4 92 0.8 33.4
08:00 1019 30.09 848 25.04 1.2 34.2 95 0.5 32.8
08:05 1019 30.09 848 25.04 0.8 33.4 96 0.3 32.5
08:10 1019 30.09 848 25.04 0.8 33.4 97 0.4 32.7
08:15 1019 30.09 848 25.04 1.1 33.9 97 0.6 33.2
08:20 1019 30.09 848 25.04 1.3 34.3 96 0.6 33.1
08:25 1019 30.09 848 25.04 1.4 34.6 95 0.7 33.2
08:30 1019 30.09 848 25.04 1.5 34.8 94 0.6 33.1
08:35 1019 30.09 848 25.04 1.9 35.4 93 0.9 33.6
08:40 1019 30.09 848 25.04 2.3 36.2 92 1.2 34.1
08:45 1019 30.09 848 25.04 2.8 37 88 1 33.8
08:50 1019 30.09 848 25.04 3 37.4 89 1.3 34.4
08:55 1019 30.09 849 25.07 3.1 37.5 89 1.5 34.7
09:00 1019 30.09 849 25.07 3.7 38.7 85 1.4 34.5
09:05 1020 30.12 849 25.07 4.4 40 83 1.9 35.4
09:10 1020 30.12 849 25.07 4.7 40.5 80 1.5 34.6
09:15 1020 30.12 849 25.07 4.6 40.3 81 1.6 34.9
09:20 1020 30.12 849 25.07 4.9 40.9 83 2.3 36.2
09:25 1020 30.12 849 25.07 5.3 41.6 82 2.5 36.4
09:30 1020 30.12 849 25.07 5.7 42.2 80 2.5 36.5
09:35 1020 30.12 849 25.07 5.9 42.7 75 1.8 35.2
09:40 1020 30.12 849 25.07 6.2 43.1 76 2.3 36.2
09:45 1020 30.12 849 25.07 5.9 42.6 77 2.3 36.1
09:50 1020 30.12 849 25.07 5.9 42.6 73 1.4 34.6
09:55 1020 30.12 849 25.07 6.4 43.4 74 2.2 35.9
10:00 1020 30.12 849 25.07 6.2 43.2 73 1.8 35.2
10:05 1020 30.12 849 25.07 6 42.8 73 1.5 34.7
10:10 1020 30.12 849 25.07 6.3 43.3 73 1.9 35.4
10:15 1020 30.12 849 25.07 6.3 43.3 73 1.9 35.4
10:20 1020 30.12 849 25.07 6.5 43.7 69 1.3 34.4
10:25 1020 30.12 849 25.07 6.6 43.9 72 1.9 35.5
10:30 1020 30.12 849 25.07 6.6 43.9 71 1.8 35.2
10:35 1020 30.12 849 25.07 6.8 44.2 70 1.7 35.1
10:40 1020 30.12 849 25.07 6.6 43.8 72 1.9 35.3
10:45 1020 30.12 849 25.07 6.6 44 72 2 35.6
10:50 1020 30.12 849 25.07 7 44.7 70 2 35.5
10:55 1020 30.12 849 25.07 7.2 45 69 2 35.5
11:00 1020 30.12 849 25.07 7.2 45 70 2.1 35.7
11:05 1020 30.12 849 25.07 7.3 45.2 69 1.9 35.5
11:10 1020 30.12 849 25.07 7.3 45.2 67 1.7 35.1
11:15 1020 30.12 850 25.1 7.5 45.4 67 1.8 35.3
11:20 1020 30.12 850 25.1 7.4 45.4 64 1.2 34.1
11:25 1020 30.12 850 25.1 7.3 45.2 65 1.3 34.3
11:30 1020 30.12 850 25.1 7.4 45.3 63 0.9 33.6
11:35 1021 30.15 850 25.1 7.5 45.5 65 1.3 34.4
11:40 1021 30.15 850 25.1 7.4 45.4 65 1.3 34.4
11:45 1021 30.15 850 25.1 7.5 45.5 64 1.3 34.3
11:50 1021 30.15 850 25.1 7.8 46 65 1.6 34.8
11:55 1021 30.15 850 25.1 7.8 46 65 1.6 35
12:00 1021 30.15 850 25.1 7.5 45.6 66 1.6 34.8
12:05 1021 30.15 850 25.1 7.4 45.3 68 1.9 35.4
12:10 1021 30.15 850 25.1 6.7 44 72 1.9 35.4
12:15 1021 30.15 850 25.1 6.6 43.9 71 1.6 35
12:20 1021 30.15 850 25.1 6.3 43.3 75 2.1 35.8
12:25 1021 30.15 850 25.1 6 42.9 75 2 35.5
12:30 1021 30.15 850 25.1 6.3 43.3 75 2.1 35.8
12:35 1021 30.15 850 25.1 6.1 43 74 1.9 35.3
12:40 1021 30.15 850 25.1 5.9 42.7 74 1.6 34.8
12:45 1021 30.15 850 25.1 5.8 42.4 75 1.8 35.2
12:50 1021 30.15 850 25.1 6.4 43.6 71 1.5 34.7
12:55 1021 30.15 850 25.1 7.1 44.7 70 2 35.6
13:00 1021 30.15 850 25.1 7.1 44.7 69 1.7 35.1
13:05 1021 30.15 850 25.1 6.6 43.8 71 1.8 35.2
13:10 1021 30.15 850 25.1 6.9 44.4 69 1.7 35
13:15 1021 30.15 850 25.1 7.3 45.2 66 1.5 34.7
13:20 1021 30.15 850 25.1 8.2 46.7 64 1.9 35.4
13:25 1021 30.15 850 25.1 8.5 47.3 61 1.5 34.8
13:30 1021 30.15 850 25.1 8.8 47.8 61 1.7 35.1
13:35 1021 30.15 850 25.1 9.6 49.3 56 1.2 34.1
13:40 1021 30.15 850 25.1 9.6 49.2 58 1.7 35.1
13:45 1021 30.15 850 25.1 10.6 51.1 54 1.7 35
13:50 1021 30.15 850 25.1 10.8 51.4 57 2.5 36.5
13:55 1021 30.15 851 25.13 9.6 49.3 59 2.1 35.7
14:00 1021 30.15 851 25.13 9.6 49.3 57 1.6 34.8
14:05 1021 30.15 851 25.13 10 50.1 58 2.2 36
14:10 1021 30.15 851 25.13 9.8 49.6 56 1.5 34.6
14:15 1021 30.15 851 25.13 10.7 51.3 55 2 35.5
14:20 1021 30.15 851 25.13 10.7 51.2 57 2.5 36.5
14:25 1021 30.15 851 25.13 10.2 50.3 58 2.4 36.2
14:30 1022 30.18 851 25.13 9.7 49.4 60 2.3 36.1
14:35 1022 30.18 851 25.13 9.5 49.2 60 2.2 35.9
14:40 1022 30.18 851 25.13 9.6 49.2 61 2.3 36.2
14:45 1022 30.18 851 25.13 9.7 49.5 59 2.1 35.8
14:50 1022 30.18 851 25.13 9.9 49.9 58 2.1 35.7
14:55 1022 30.18 851 25.13 10.1 50.2 58 2.2 35.9
15:00 1022 30.18 851 25.13 10.6 51 57 2.4 36.3
15:05 1022 30.18 851 25.13 10.2 50.3 57 2.2 35.9
15:10 1022 30.18 851 25.13 10.5 50.8 56 2 35.6
15:15 1022 30.18 851 25.13 10.2 50.3 56 1.9 35.4
15:20 1022 30.18 851 25.13 10.4 50.7 58 2.4 36.4
15:25 1022 30.18 851 25.13 10.6 51.1 56 2.3 36.2
15:30 1022 30.18 851 25.13 11.1 51.9 54 2.1 35.7
15:35 1022 30.18 851 25.13 11.5 52.8 53 2.5 36.4
15:40 1022 30.18 851 25.13 11.5 52.6 52 2 35.6
15:45 1022 30.18 851 25.13 11.6 52.9 52 2.1 35.8
15:50 1022 30.18 851 25.13 11.7 53.1 56 3.2 37.8
15:55 1022 30.18 851 25.13 9.9 49.7 61 2.7 36.9
16:00 1022 30.18 851 25.13 10.3 50.6 57 2.3 36.1
16:05 1022 30.18 851 25.13 11.3 52.3 51 1.5 34.7
16:10 1022 30.18 851 25.13 11.8 53.2 50 1.8 35.3
16:15 1022 30.18 851 25.13 12.9 55.2 46 1.8 35.2
16:20 1022 30.18 851 25.13 11.7 53.1 52 2.3 36.2
16:25 1022 30.18 851 25.13 11.6 52.8 49 1.4 34.5
16:30 1022 30.18 851 25.13 12.5 54.5 48 1.9 35.4
16:35 1022 30.18 851 25.13 12 53.5 51 2.1 35.7
16:40 1022 30.18 851 25.13 11.6 52.8 49 1.3 34.4
16:45 1022 30.18 851 25.13 11.9 53.4 49 1.6 34.9
16:50 1022 30.18 851 25.13 12.1 53.9 48 1.5 34.8
16:55 1022 30.18 851 25.13 13.1 55.5 45 1.6 34.9
17:00 1022 30.18 851 25.13 12.5 54.6 47 1.6 35
17:05 1021 30.15 851 25.13 11.8 53.3 48 1.1 34
17:10 1021 30.15 851 25.13 11.3 52.3 50 1.2 34.1
17:15 1021 30.15 851 25.13 11.6 52.8 50 1.5 34.7
17:20 1021 30.15 851 25.13 11.7 53.1 51 1.9 35.5
17:25 1021 30.15 851 25.13 11.7 53 51 1.8 35.3
17:30 1021 30.15 851 25.13 11.5 52.6 51 1.7 35.1
17:35 1021 30.15 851 25.13 11.5 52.7 52 2 35.7
17:40 1021 30.15 851 25.13 12.1 53.7 48 1.5 34.8
17:45 1021 30.15 851 25.13 11.9 53.4 50 1.9 35.3
17:50 1022 30.18 851 25.13 12.1 53.7 49 1.9 35.4
17:55 1022 30.18 851 25.13 11.6 53 51 2 35.6
18:00 1021 30.15 851 25.13 11.5 52.7 50 1.6 34.9
18:05 1021 30.15 851 25.13 11.9 53.3 49 1.4 34.6
18:10 1021 30.15 851 25.13 12.1 53.8 48 1.6 34.9
18:15 1021 30.15 851 25.13 12.5 54.4 47 1.5 34.7
18:20 1021 30.15 850 25.1 12.9 55.2 47 1.9 35.4
18:25 1021 30.15 850 25.1 12.8 55.1 45 1.4 34.5
18:30 1021 30.15 850 25.1 13.3 56 43 1.1 34
18:35 1021 30.15 850 25.1 13 55.3 45 1.3 34.3
18:40 1021 30.15 850 25.1 13.1 55.6 45 1.4 34.6
18:45 1021 30.15 850 25.1 12.4 54.3 47 1.6 34.9
18:50 1021 30.15 850 25.1 12.4 54.3 48 1.7 35
18:55 1021 30.15 850 25.1 12.1 53.7 48 1.6 34.8
19:00 1021 30.15 850 25.1 11.9 53.4 48 1.4 34.6
19:05 1021 30.15 850 25.1 11.9 53.5 48 1.4 34.5
19:10 1021 30.15 850 25.1 12 53.6 48 1.4 34.6
19:15 1021 30.15 850 25.1 11.8 53.2 50 1.8 35.3
19:20 1021 30.15 850 25.1 11 51.8 53 1.8 35.2
19:25 1021 30.15 850 25.1 10.9 51.6 54 1.9 35.4
19:30 1021 30.15 850 25.1 10.9 51.6 55 2.1 35.9
19:35 1021 30.15 850 25.1 10.6 51.1 58 2.7 36.8
19:40 1021 30.15 850 25.1 10.5 50.9 57 2.4 36.3
19:45 1021 30.15 850 25.1 10.4 50.7 57 2.4 36.3
19:50 1021 30.15 850 25.1 10.3 50.6 58 2.4 36.4
19:55 1021 30.15 850 25.1 10.3 50.6 57 2.3 36.2
20:00 1020 30.12 850 25.1 10.2 50.4 58 2.4 36.3
20:05 1020 30.12 850 25.1 10.1 50.2 58 2.3 36.1
20:10 1020 30.12 850 25.1 10.1 50.2 58 2.3 36.2
20:15 1021 30.15 850 25.1 10 50.1 59 2.5 36.4
20:20 1020 30.12 850 25.1 10 50 59 2.3 36.1
20:25 1020 30.12 850 25.1 10 49.9 59 2.3 36.1
20:30 1020 30.12 850 25.1 9.8 49.7 59 2.3 36.1
20:35 1020 30.12 850 25.1 9.7 49.5 60 2.4 36.3
20:40 1020 30.12 850 25.1 9.6 49.3 61 2.6 36.7
20:45 1020 30.12 850 25.1 9.4 49 62 2.6 36.6
20:50 1020 30.12 849 25.07 9.1 48.4 63 2.5 36.4
20:55 1020 30.12 850 25.1 8.9 47.9 64 2.4 36.3
21:00 1020 30.12 850 25.1 8.6 47.5 64 2.3 36.1
21:05 1020 30.12 850 25.1 8.5 47.2 66 2.6 36.7
21:10 1020 30.12 850 25.1 8.3 46.9 67 2.6 36.6
21:15 1020 30.12 850 25.1 8 46.5 72 3.4 38.1
21:20 1020 30.12 850 25.1 7.7 45.9 72 3.1 37.5
21:25 1020 30.12 850 25.1 7.8 46 69 2.5 36.6
21:30 1020 30.12 850 25.1 7.8 46 68 2.3 36.2
21:35 1020 30.12 850 25.1 7.6 45.7 68 2.2 35.9
21:40 1020 30.12 850 25.1 7.4 45.4 70 2.3 36.1
21:45 1020 30.12 850 25.1 7.2 45 71 2.2 36
21:50 1020 30.12 850 25.1 7.1 44.8 71 2.2 35.9
21:55 1020 30.12 850 25.1 6.9 44.5 71 2.2 35.9
22:00 1020 30.12 850 25.1 6.8 44.3 71 2 35.6
22:05 1020 30.12 850 25.1 6.8 44.2 72 2.1 35.7
22:10 1020 30.12 850 25.1 6.7 44.1 72 2.1 35.7
22:15 1020 30.12 850 25.1 6.6 43.8 72 1.9 35.4
22:20 1020 30.12 850 25.1 6.6 43.8 73 2 35.6
22:25 1020 30.12 850 25.1 6.4 43.5 73 1.9 35.4
22:30 1020 30.12 850 25.1 6.4 43.5 73 1.8 35.3
22:35 1020 30.12 849 25.07 6.4 43.6 73 1.9 35.5
22:40 1020 30.12 849 25.07 6.6 43.9 73 2.2 35.9
22:45 1020 30.12 849 25.07 6.7 44 74 2.4 36.3
22:50 1020 30.12 849 25.07 6.6 43.9 75 2.5 36.5
22:55 1020 30.12 849 25.07 6.6 43.9 76 2.8 37
23:00 1020 30.12 849 25.07 6.6 43.8 78 3 37.3
23:05 1020 30.12 849 25.07 6.6 43.8 78 3.1 37.5
23:10 1020 30.12 849 25.07 6.5 43.7 78 3 37.4
23:15 1020 30.12 849 25.07 6.5 43.6 79 3 37.4
23:20 1020 30.12 849 25.07 6.5 43.7 78 3 37.4
23:25 1020 30.12 849 25.07 6.6 43.8 78 3 37.5
23:30 1020 30.12 849 25.07 6.5 43.7 78 3 37.5
23:35 1020 30.12 849 25.07 6.4 43.5 78 2.9 37.3
23:40 1020 30.12 849 25.07 6.4 43.5 79 3 37.4
23:45 1020 30.12 849 25.07 6.3 43.4 79 3 37.4
23:50 1020 30.12 849 25.07 6.2 43.2 80 3 37.5
23:55 1020 30.12 849 25.07 6 42.8 81 3 37.3
24:00 1020 30.12 849 25.07 5.9 42.7 81 3 37.4